Time;durP1;ratioP1;P1;durP2;ratioP2;P2;SDS_P1;SDS_P2;PMS_P1;PMS_P2;Temp;Humidity;BMP_temperature;BMP_pressure;BME280_temperature;BME280_humidity;BME280_pressure;Samples;Min_cycle;Max_cycle;Signal;HPM_P1;HPM_P2
2023/04/11 00:01:31;;;;;;;14.27;9.13;;;6.60;99.90;;;;;;4209508;28;20044;-63
2023/04/11 00:03:32;;;;;;;15.37;9.13;;;6.60;99.90;;;;;;4211298;28;20070;-61
2023/04/11 00:05:33;;;;;;;16.37;9.27;;;6.50;99.90;;;;;;4223351;28;20051;-60
2023/04/11 00:07:35;;;;;;;19.10;9.83;;;6.50;99.90;;;;;;4228199;28;20032;-61
2023/04/11 00:09:36;;;;;;;16.37;9.33;;;6.50;99.90;;;;;;4226773;28;20023;-62
2023/04/11 00:11:37;;;;;;;15.00;9.20;;;6.50;99.90;;;;;;4226848;28;20070;-61
2023/04/11 00:13:38;;;;;;;13.40;9.13;;;6.40;99.90;;;;;;4226191;28;20039;-62
2023/04/11 00:15:39;;;;;;;15.70;9.70;;;6.40;99.90;;;;;;4227745;28;20433;-61
2023/04/11 00:17:44;;;;;;;15.20;9.67;;;6.40;99.90;;;;;;4226953;28;20040;-61
2023/04/11 00:19:47;;;;;;;18.37;10.17;;;6.40;99.90;;;;;;4226934;28;20528;-64
2023/04/11 00:21:49;;;;;;;15.83;10.23;;;6.40;99.90;;;;;;4226571;28;20039;-62
2023/04/11 00:23:54;;;;;;;17.90;10.63;;;6.40;99.90;;;;;;4227426;28;20104;-60
2023/04/11 00:25:55;;;;;;;17.67;10.47;;;6.40;99.90;;;;;;4226792;28;20077;-62
2023/04/11 00:27:56;;;;;;;17.03;11.10;;;6.40;99.90;;;;;;4226862;28;20035;-62
2023/04/11 00:29:57;;;;;;;19.97;10.60;;;6.40;99.90;;;;;;4226779;28;20024;-61
2023/04/11 00:31:59;;;;;;;14.97;9.53;;;6.40;99.90;;;;;;4226403;28;20023;-62
2023/04/11 00:34:00;;;;;;;15.60;9.83;;;6.40;99.90;;;;;;4226959;28;20809;-62
2023/04/11 00:36:02;;;;;;;17.40;11.20;;;6.40;99.90;;;;;;4229090;28;20085;-63
2023/04/11 00:38:03;;;;;;;16.93;10.33;;;6.40;99.90;;;;;;4230117;28;20476;-62
2023/04/11 00:40:05;;;;;;;16.50;10.20;;;6.40;99.90;;;;;;4229687;28;20036;-62
2023/04/11 00:42:07;;;;;;;17.10;10.33;;;6.40;99.90;;;;;;4230894;28;20562;-60
2023/04/11 00:44:10;;;;;;;18.30;11.07;;;6.40;99.90;;;;;;4228923;28;20089;-61
2023/04/11 00:46:12;;;;;;;15.93;10.17;;;6.30;99.90;;;;;;4230283;28;20047;-61
2023/04/11 00:48:14;;;;;;;16.50;10.20;;;6.30;99.90;;;;;;4228873;28;20499;-61
2023/04/11 00:50:16;;;;;;;18.23;10.00;;;6.30;99.90;;;;;;4230734;28;20035;-61
2023/04/11 00:52:18;;;;;;;17.10;10.47;;;6.20;99.90;;;;;;4229387;28;20027;-62
2023/04/11 00:54:19;;;;;;;16.63;9.80;;;6.20;99.90;;;;;;4229682;28;20064;-61
2023/04/11 00:56:21;;;;;;;16.90;10.70;;;6.10;99.90;;;;;;4228747;28;20471;-61
2023/04/11 00:58:22;;;;;;;15.07;9.20;;;6.10;99.90;;;;;;4229674;28;20901;-62
2023/04/11 01:00:23;;;;;;;16.93;8.73;;;6.00;99.90;;;;;;4228879;28;20512;-61
2023/04/11 01:02:25;;;;;;;19.23;9.53;;;6.00;99.90;;;;;;4229236;28;20043;-64
2023/04/11 01:04:28;;;;;;;16.20;9.90;;;5.90;99.90;;;;;;4230066;28;20400;-61
2023/04/11 01:06:31;;;;;;;15.73;9.47;;;5.90;99.90;;;;;;4228611;28;20449;-62
2023/04/11 01:08:35;;;;;;;15.93;9.20;;;5.90;99.90;;;;;;4230167;28;20912;-63
2023/04/11 01:10:37;;;;;;;13.90;8.27;;;5.80;99.90;;;;;;4228398;28;20048;-61
2023/04/11 01:12:39;;;;;;;14.33;9.13;;;5.80;99.90;;;;;;4229728;28;20039;-62
2023/04/11 01:14:40;;;;;;;15.40;9.57;;;5.70;99.90;;;;;;4228516;28;20116;-61
2023/04/11 01:16:45;;;;;;;16.07;9.27;;;5.70;99.90;;;;;;4230597;28;20081;-62
2023/04/11 01:18:48;;;;;;;16.23;9.43;;;5.70;99.90;;;;;;4228944;28;20468;-62
2023/04/11 01:20:49;;;;;;;16.43;9.37;;;5.70;99.90;;;;;;4230164;28;20975;-61
2023/04/11 01:22:51;;;;;;;13.87;8.87;;;5.60;99.90;;;;;;4229075;28;20325;-62
2023/04/11 01:24:53;;;;;;;13.53;8.70;;;5.60;99.90;;;;;;4229394;28;20080;-61
2023/04/11 01:26:55;;;;;;;19.17;10.73;;;5.60;99.90;;;;;;4228142;28;20673;-62
2023/04/11 01:28:56;;;;;;;18.67;9.93;;;5.60;99.90;;;;;;4229339;28;20077;-62
2023/04/11 01:30:57;;;;;;;13.90;9.13;;;5.60;99.90;;;;;;4228886;28;20019;-62
2023/04/11 01:32:59;;;;;;;14.13;8.53;;;5.50;99.90;;;;;;4229105;28;20268;-62
2023/04/11 01:35:02;;;;;;;16.37;9.77;;;5.50;99.90;;;;;;4229187;28;20280;-61
2023/04/11 01:37:03;;;;;;;18.93;10.67;;;5.50;99.90;;;;;;4229590;28;20260;-65
2023/04/11 01:39:04;;;;;;;16.67;9.40;;;5.50;99.90;;;;;;4229500;28;20388;-62
2023/04/11 01:41:06;;;;;;;16.30;8.90;;;5.50;99.90;;;;;;4228236;28;20345;-64
2023/04/11 01:43:08;;;;;;;17.53;9.70;;;5.50;99.90;;;;;;4228957;28;20268;-62
2023/04/11 01:45:11;;;;;;;14.53;9.50;;;5.50;99.90;;;;;;4228865;28;20260;-63
2023/04/11 01:47:13;;;;;;;13.90;10.03;;;5.50;99.90;;;;;;4228606;28;20345;-64
2023/04/11 01:49:14;;;;;;;17.20;9.10;;;5.50;99.90;;;;;;4228391;28;20027;-62
2023/04/11 01:51:15;;;;;;;14.60;9.00;;;5.50;99.90;;;;;;4229584;28;20328;-62
2023/04/11 01:53:16;;;;;;;16.73;9.77;;;5.60;99.90;;;;;;4227814;28;20043;-62
2023/04/11 01:55:17;;;;;;;16.47;9.47;;;5.60;99.90;;;;;;4229592;28;20285;-62
2023/04/11 01:57:18;;;;;;;19.33;10.30;;;5.60;99.90;;;;;;4227692;28;20256;-62
2023/04/11 01:59:19;;;;;;;17.77;10.03;;;5.60;99.90;;;;;;4228832;28;20040;-64
2023/04/11 02:01:21;;;;;;;18.10;9.83;;;5.60;99.90;;;;;;4227413;28;20248;-54
2023/04/11 02:03:22;;;;;;;16.53;10.03;;;5.60;99.90;;;;;;4229525;28;20031;-63
2023/04/11 02:05:23;;;;;;;15.33;9.77;;;5.60;99.90;;;;;;4228351;28;20276;-60
2023/04/11 02:07:24;;;;;;;17.07;9.50;;;5.60;99.90;;;;;;4229057;28;20321;-64
2023/04/11 02:09:26;;;;;;;15.00;8.80;;;5.60;99.90;;;;;;4228048;28;20261;-59
2023/04/11 02:11:27;;;;;;;15.60;9.63;;;5.60;99.90;;;;;;4227904;28;20325;-62
2023/04/11 02:13:28;;;;;;;15.90;8.77;;;5.60;99.90;;;;;;4228338;28;20550;-61
2023/04/11 02:15:29;;;;;;;16.47;9.30;;;5.60;99.90;;;;;;4228056;28;20264;-60
2023/04/11 02:17:30;;;;;;;17.63;10.50;;;5.60;99.90;;;;;;4229724;28;20321;-62
2023/04/11 02:19:33;;;;;;;17.87;9.53;;;5.60;99.90;;;;;;4228094;28;20264;-64
2023/04/11 02:21:34;;;;;;;15.20;9.00;;;5.70;99.90;;;;;;4229161;28;20329;-61
2023/04/11 02:23:36;;;;;;;14.07;9.53;;;5.60;99.90;;;;;;4227187;28;20808;-59
2023/04/11 02:25:37;;;;;;;14.47;9.67;;;5.70;99.90;;;;;;4229193;28;20268;-62
2023/04/11 02:27:39;;;;;;;16.70;10.33;;;5.60;99.90;;;;;;4227519;28;20276;-61
2023/04/11 02:29:40;;;;;;;16.47;8.17;;;5.70;99.90;;;;;;4229167;28;20077;-62
2023/04/11 02:31:41;;;;;;;19.63;9.30;;;5.70;99.90;;;;;;4226967;28;20035;-60
2023/04/11 02:33:42;;;;;;;16.13;9.23;;;5.60;99.90;;;;;;4229080;28;20028;-62
2023/04/11 02:35:44;;;;;;;16.07;8.70;;;5.70;99.90;;;;;;4227091;28;20043;-62
2023/04/11 02:37:45;;;;;;;18.23;9.03;;;5.60;99.90;;;;;;4228600;28;20027;-60
2023/04/11 02:39:46;;;;;;;17.57;8.83;;;5.60;99.90;;;;;;4228198;28;20104;-61
2023/04/11 02:41:47;;;;;;;16.10;9.63;;;5.50;99.90;;;;;;4228212;28;20364;-65
2023/04/11 02:43:49;;;;;;;14.60;9.10;;;5.50;99.90;;;;;;4228188;28;20765;-61
2023/04/11 02:45:50;;;;;;;15.60;9.17;;;5.40;99.90;;;;;;4226787;28;20074;-62
2023/04/11 02:47:51;;;;;;;19.90;9.80;;;5.30;99.90;;;;;;4229094;28;20032;-63
2023/04/11 02:49:52;;;;;;;17.30;9.23;;;5.20;99.90;;;;;;4226666;28;20031;-64
2023/04/11 02:51:53;;;;;;;16.50;9.10;;;5.10;99.90;;;;;;4228690;28;20047;-62
2023/04/11 02:53:54;;;;;;;19.57;9.13;;;5.00;99.90;;;;;;4227481;28;20256;-65
2023/04/11 02:55:55;;;;;;;14.37;8.07;;;5.00;99.90;;;;;;4227972;28;20272;-62
2023/04/11 02:57:57;;;;;;;15.40;8.63;;;4.90;99.90;;;;;;4208777;28;20338;-61
2023/04/11 02:59:58;;;;;;;13.03;8.20;;;4.80;99.90;;;;;;4228382;28;20284;-61
2023/04/11 03:02:00;;;;;;;15.13;8.80;;;4.80;99.90;;;;;;4227239;28;20317;-61
2023/04/11 03:04:01;;;;;;;14.30;8.73;;;4.70;99.90;;;;;;4228448;28;20252;-63
2023/04/11 03:06:03;;;;;;;12.63;8.17;;;4.70;99.90;;;;;;4226738;28;21119;-62
2023/04/11 03:08:07;;;;;;;15.23;7.50;;;4.60;99.90;;;;;;4227041;28;20280;-61
2023/04/11 03:10:08;;;;;;;15.17;8.73;;;4.60;99.90;;;;;;4208829;28;20261;-63
2023/04/11 03:12:10;;;;;;;13.50;8.30;;;4.50;99.90;;;;;;4227991;28;20313;-60
2023/04/11 03:14:11;;;;;;;19.90;10.57;;;4.50;99.90;;;;;;4227353;28;20248;-61
2023/04/11 03:16:12;;;;;;;17.43;9.90;;;4.40;99.90;;;;;;4227381;28;20329;-62
2023/04/11 03:18:13;;;;;;;14.43;8.53;;;4.40;99.90;;;;;;4228678;28;20321;-62
2023/04/11 03:20:18;;;;;;;16.10;8.93;;;4.40;99.90;;;;;;4227138;28;20342;-62
2023/04/11 03:22:19;;;;;;;15.03;9.03;;;4.30;99.90;;;;;;4228480;28;20789;-61
2023/04/11 03:24:21;;;;;;;15.80;9.17;;;4.30;99.90;;;;;;4227234;28;20256;-62
2023/04/11 03:26:25;;;;;;;16.60;9.80;;;4.30;99.90;;;;;;4228204;28;20305;-62
2023/04/11 03:28:27;;;;;;;13.53;8.50;;;4.30;99.90;;;;;;4226388;28;20321;-61
2023/04/11 03:30:28;;;;;;;16.80;9.10;;;4.30;99.90;;;;;;4227282;28;20260;-62
2023/04/11 03:32:29;;;;;;;13.90;8.03;;;4.30;99.90;;;;;;4227048;28;20651;-61
2023/04/11 03:34:30;;;;;;;14.33;8.67;;;4.30;99.90;;;;;;4228257;28;20305;-61
2023/04/11 03:36:32;;;;;;;13.43;9.10;;;4.30;99.90;;;;;;4227024;28;20792;-61
2023/04/11 03:38:33;;;;;;;14.83;9.23;;;4.30;99.90;;;;;;4227074;28;20260;-61
2023/04/11 03:40:34;;;;;;;18.33;9.27;;;4.20;99.90;;;;;;4226295;28;20332;-62
2023/04/11 03:42:35;;;;;;;16.03;9.50;;;4.20;99.90;;;;;;4227637;28;20316;-60
2023/04/11 03:44:36;;;;;;;15.67;8.77;;;4.20;99.90;;;;;;4227585;28;20302;-61
2023/04/11 03:46:37;;;;;;;15.00;9.53;;;4.20;99.90;;;;;;4227171;28;20321;-65
2023/04/11 03:48:39;;;;;;;16.57;8.90;;;4.10;99.90;;;;;;4228032;28;20743;-61
2023/04/11 03:50:40;;;;;;;16.40;10.20;;;4.10;99.90;;;;;;4226243;28;20276;-62
2023/04/11 03:52:41;;;;;;;12.47;8.30;;;4.10;99.90;;;;;;4227755;28;20740;-60
2023/04/11 03:54:42;;;;;;;16.50;9.80;;;4.00;99.90;;;;;;4226820;28;20337;-61
2023/04/11 03:56:43;;;;;;;16.07;9.37;;;4.00;99.90;;;;;;4227289;28;20756;-62
2023/04/11 03:58:44;;;;;;;18.10;10.37;;;4.00;99.90;;;;;;4226919;28;20272;-62
2023/04/11 04:00:46;;;;;;;19.23;10.20;;;4.10;99.90;;;;;;4227230;28;20280;-65
2023/04/11 04:02:47;;;;;;;16.07;10.03;;;4.00;99.90;;;;;;4224052;28;20321;-63
2023/04/11 04:04:54;;;;;;;18.00;9.50;;;4.10;99.90;;;;;;4226301;28;20280;-64
2023/04/11 04:06:55;;;;;;;19.30;10.87;;;4.10;99.90;;;;;;4225863;28;20336;-62
2023/04/11 04:08:58;;;;;;;17.67;10.00;;;4.10;99.90;;;;;;4216582;28;20662;-62
2023/04/11 04:10:59;;;;;;;14.87;9.03;;;4.20;99.90;;;;;;4229014;28;20716;-61
2023/04/11 04:13:00;;;;;;;20.17;10.23;;;4.10;99.90;;;;;;4229990;28;20272;-64
2023/04/11 04:15:02;;;;;;;15.00;9.73;;;4.10;99.90;;;;;;4229808;28;20332;-62
2023/04/11 04:17:03;;;;;;;19.40;9.73;;;4.10;99.90;;;;;;4229896;28;20349;-64
2023/04/11 04:19:04;;;;;;;19.13;10.73;;;4.30;99.90;;;;;;4229971;28;20276;-63
2023/04/11 04:21:07;;;;;;;16.00;10.40;;;4.40;99.90;;;;;;4229899;28;20840;-64
2023/04/11 04:23:08;;;;;;;16.63;9.83;;;4.60;99.90;;;;;;4230473;28;20792;-62
2023/04/11 04:25:11;;;;;;;20.50;9.93;;;4.70;99.90;;;;;;4229487;28;20305;-62
2023/04/11 04:27:12;;;;;;;17.27;10.10;;;4.90;99.90;;;;;;4230582;28;20264;-62
2023/04/11 04:29:16;;;;;;;18.40;10.40;;;5.00;99.90;;;;;;4229309;28;20325;-63
2023/04/11 04:31:24;;;;;;;16.77;10.27;;;5.20;99.90;;;;;;4229957;28;20271;-64
2023/04/11 04:33:25;;;;;;;19.37;11.37;;;5.50;99.90;;;;;;4229369;28;20745;-67
2023/04/11 04:35:26;;;;;;;17.70;9.90;;;5.90;99.90;;;;;;4230695;28;20264;-62
2023/04/11 04:37:27;;;;;;;18.00;11.57;;;6.20;99.90;;;;;;4227875;28;20344;-62
2023/04/11 04:39:28;;;;;;;16.77;9.80;;;6.60;99.90;;;;;;4230424;28;20260;-63
2023/04/11 04:41:33;;;;;;;16.50;9.47;;;7.00;99.90;;;;;;4229223;28;20690;-64
2023/04/11 04:43:34;;;;;;;19.43;10.57;;;7.20;99.90;;;;;;4230558;28;20024;-63
2023/04/11 04:45:36;;;;;;;17.70;10.93;;;7.60;99.90;;;;;;4229126;28;20016;-64
2023/04/11 04:47:37;;;;;;;16.50;9.57;;;8.00;99.90;;;;;;4230191;28;20069;-65
2023/04/11 04:49:38;;;;;;;15.43;9.63;;;8.50;99.90;;;;;;4229623;28;20055;-67
2023/04/11 04:51:39;;;;;;;14.70;9.00;;;8.80;99.90;;;;;;4229500;28;20061;-62
2023/04/11 04:53:40;;;;;;;15.90;9.73;;;9.20;99.90;;;;;;4229372;28;20113;-63
2023/04/11 04:55:41;;;;;;;14.20;8.77;;;9.90;99.90;;;;;;4229131;28;20032;-66
2023/04/11 04:57:43;;;;;;;15.10;8.40;;;10.10;99.90;;;;;;4213028;28;20086;-63
2023/04/11 04:59:44;;;;;;;16.17;8.90;;;10.50;99.90;;;;;;4212186;28;20082;-63
2023/04/11 05:01:45;;;;;;;21.93;9.40;;;11.20;99.90;;;;;;4229904;28;20039;-64
2023/04/11 05:03:57;;;;;;;15.10;9.00;;;11.60;99.90;;;;;;4228995;28;20431;-64
2023/04/11 05:05:58;;;;;;;17.30;8.10;;;11.80;99.90;;;;;;4230265;28;20024;-66
2023/04/11 05:08:00;;;;;;;14.73;8.50;;;11.90;99.90;;;;;;4228284;28;20092;-67
2023/04/11 05:10:01;;;;;;;12.57;8.00;;;12.30;99.90;;;;;;4228956;28;20093;-67
2023/04/11 05:12:02;;;;;;;13.10;8.27;;;12.60;99.90;;;;;;4229087;28;20028;-64
2023/04/11 05:14:03;;;;;;;13.47;8.10;;;12.80;99.90;;;;;;4229536;28;20548;-62
2023/04/11 05:16:05;;;;;;;12.63;8.90;;;13.00;99.90;;;;;;4228328;28;20092;-67
2023/04/11 05:18:06;;;;;;;12.83;8.13;;;12.90;99.90;;;;;;4229646;28;20101;-63
2023/04/11 05:20:07;;;;;;;10.57;8.23;;;13.10;99.90;;;;;;4228113;28;20039;-65
2023/04/11 05:22:08;;;;;;;12.67;7.37;;;13.10;99.90;;;;;;4227834;28;20080;-64
2023/04/11 05:24:10;;;;;;;20.53;9.20;;;13.30;99.90;;;;;;4228437;28;20028;-65
2023/04/11 05:26:11;;;;;;;14.90;8.67;;;13.20;99.90;;;;;;4224822;28;20027;-61
2023/04/11 05:28:12;;;;;;;12.33;8.33;;;13.40;99.90;;;;;;4227254;28;20380;-62
2023/04/11 05:30:15;;;;;;;13.63;8.27;;;13.70;99.90;;;;;;4226901;28;20035;-62
2023/04/11 05:32:16;;;;;;;13.27;7.93;;;14.10;99.90;;;;;;4227604;28;20035;-65
2023/04/11 05:34:17;;;;;;;13.23;8.40;;;14.40;99.90;;;;;;4227913;28;20049;-65
2023/04/11 05:36:18;;;;;;;14.47;7.67;;;14.90;99.90;;;;;;4229536;28;20804;-67
2023/04/11 05:38:20;;;;;;;11.63;7.83;;;15.10;99.50;;;;;;4228600;28;20019;-63
2023/04/11 05:40:21;;;;;;;12.32;7.05;;;15.50;99.20;;;;;;4229350;28;20056;-62
2023/04/11 05:42:22;;;;;;;17.27;8.75;;;15.80;97.90;;;;;;4227918;28;20076;-63
2023/04/11 05:44:23;;;;;;;11.35;7.40;;;16.20;97.70;;;;;;4229272;28;20031;-61
2023/04/11 05:46:24;;;;;;;13.30;7.68;;;16.50;96.70;;;;;;4227833;28;20088;-62
2023/04/11 05:48:25;;;;;;;11.68;7.18;;;16.60;96.00;;;;;;4230171;28;20024;-64
2023/04/11 05:50:27;;;;;;;12.77;6.43;;;16.90;95.30;;;;;;4226987;28;20028;-64
2023/04/11 05:52:28;;;;;;;10.35;7.40;;;17.00;94.50;;;;;;4223607;28;20053;-64
2023/04/11 05:54:33;;;;;;;9.20;5.97;;;17.00;94.00;;;;;;4226484;28;20135;-62
2023/04/11 05:56:36;;;;;;;10.95;6.57;;;16.90;93.50;;;;;;4227659;28;20036;-62
2023/04/11 05:58:37;;;;;;;9.05;7.60;;;17.20;93.40;;;;;;4228833;28;20459;-65
2023/04/11 06:00:39;;;;;;;9.13;6.40;;;17.40;92.90;;;;;;4227702;28;20047;-62
2023/04/11 06:02:41;;;;;;;11.30;7.10;;;17.50;92.50;;;;;;4227714;28;20085;-64
2023/04/11 06:04:42;;;;;;;9.73;7.00;;;17.40;92.60;;;;;;4224295;28;20143;-66
2023/04/11 06:06:43;;;;;;;13.68;8.30;;;17.60;91.90;;;;;;4228386;28;20081;-63
2023/04/11 06:08:44;;;;;;;21.38;8.48;;;18.00;91.60;;;;;;4226948;28;20081;-63
2023/04/11 06:10:45;;;;;;;10.38;7.25;;;18.20;90.70;;;;;;4228984;28;20043;-63
2023/04/11 06:12:47;;;;;;;9.80;7.18;;;18.00;90.30;;;;;;4227099;28;20027;-64
2023/04/11 06:14:48;;;;;;;10.98;7.20;;;18.00;90.30;;;;;;4210515;28;20070;-66
2023/04/11 06:16:49;;;;;;;10.43;6.72;;;18.10;90.10;;;;;;4227425;28;20081;-64
2023/04/11 06:18:50;;;;;;;12.30;7.70;;;18.00;89.60;;;;;;4228143;28;20349;-64
2023/04/11 06:20:51;;;;;;;11.80;7.32;;;17.90;89.20;;;;;;4223327;28;20097;-63
2023/04/11 06:22:52;;;;;;;11.75;6.68;;;18.20;89.10;;;;;;4228796;28;20032;-66
2023/04/11 06:24:53;;;;;;;11.90;7.38;;;18.20;88.10;;;;;;4227936;28;20073;-65
2023/04/11 06:26:55;;;;;;;12.55;8.20;;;18.20;87.60;;;;;;4227954;28;20421;-65
2023/04/11 06:28:56;;;;;;;13.77;8.20;;;18.40;87.60;;;;;;4228004;28;20019;-62
2023/04/11 06:30:57;;;;;;;9.25;6.53;;;18.40;86.90;;;;;;4226948;28;20568;-64
2023/04/11 06:32:58;;;;;;;9.55;6.40;;;18.20;86.40;;;;;;4227777;28;20027;-62
2023/04/11 06:34:59;;;;;;;9.95;6.28;;;18.00;86.60;;;;;;4226365;28;20076;-64
2023/04/11 06:37:00;;;;;;;8.43;6.38;;;18.20;86.80;;;;;;4228663;28;20072;-64
2023/04/11 06:39:03;;;;;;;11.68;6.28;;;18.40;86.50;;;;;;4225645;28;20096;-63
2023/04/11 06:41:05;;;;;;;11.55;7.45;;;18.70;86.00;;;;;;4228243;28;20040;-64
2023/04/11 06:43:06;;;;;;;11.48;8.25;;;18.90;85.40;;;;;;4216635;28;20047;-66
2023/04/11 06:45:08;;;;;;;13.70;8.25;;;18.40;85.30;;;;;;4218651;28;20048;-63
2023/04/11 06:47:09;;;;;;;11.85;7.88;;;18.60;85.60;;;;;;4226922;28;20043;-63
2023/04/11 06:49:10;;;;;;;12.13;7.30;;;18.80;85.30;;;;;;4212020;28;20548;-62
2023/04/11 06:51:11;;;;;;;14.27;8.18;;;18.90;84.90;;;;;;4225596;28;20027;-68
2023/04/11 06:53:13;;;;;;;11.43;7.93;;;18.80;84.20;;;;;;4228262;28;20081;-65
2023/04/11 06:55:14;;;;;;;12.35;7.60;;;18.60;84.10;;;;;;4227716;28;20012;-65
2023/04/11 06:57:16;;;;;;;10.93;7.38;;;18.10;84.70;;;;;;4227302;28;20084;-67
2023/04/11 06:59:19;;;;;;;14.95;8.48;;;17.60;85.70;;;;;;4227589;28;20085;-64
2023/04/11 07:01:24;;;;;;;15.02;7.68;;;17.10;87.50;;;;;;4227045;28;20028;-64
2023/04/11 07:03:25;;;;;;;12.82;7.47;;;17.20;87.70;;;;;;4216758;28;20052;-66
2023/04/11 07:05:26;;;;;;;10.57;6.80;;;17.30;87.40;;;;;;4210178;28;20082;-63
2023/04/11 07:07:27;;;;;;;10.63;6.43;;;17.10;87.50;;;;;;4209057;28;20074;-63
2023/04/11 07:09:28;;;;;;;18.30;9.15;;;17.30;87.80;;;;;;4226986;28;20028;-63
2023/04/11 07:11:30;;;;;;;10.55;6.97;;;17.50;87.60;;;;;;4209375;28;20040;-63
2023/04/11 07:13:31;;;;;;;10.30;7.38;;;17.40;87.50;;;;;;4216581;28;20036;-63
2023/04/11 07:15:32;;;;;;;10.82;7.63;;;17.30;87.20;;;;;;4210931;28;20051;-63
2023/04/11 07:17:33;;;;;;;11.55;7.13;;;16.90;88.00;;;;;;4214894;28;20783;-63
2023/04/11 07:19:35;;;;;;;15.05;7.50;;;16.70;88.80;;;;;;4225216;28;20093;-62
2023/04/11 07:21:37;;;;;;;12.63;7.22;;;16.50;89.60;;;;;;4209383;28;20120;-62
2023/04/11 07:23:38;;;;;;;11.30;7.68;;;16.30;90.10;;;;;;4221652;28;20155;-63
2023/04/11 07:25:40;;;;;;;11.93;6.95;;;16.10;90.70;;;;;;4227239;28;20069;-63
2023/04/11 07:27:42;;;;;;;11.50;7.32;;;15.50;91.40;;;;;;4224749;28;20028;-62
2023/04/11 07:29:43;;;;;;;12.95;7.07;;;15.10;92.40;;;;;;4209650;28;20048;-62
2023/04/11 07:31:44;;;;;;;11.57;6.75;;;14.80;93.20;;;;;;4210757;28;20540;-63
2023/04/11 07:33:46;;;;;;;10.68;7.13;;;14.70;93.50;;;;;;4220343;28;20084;-62
2023/04/11 07:35:47;;;;;;;15.40;7.82;;;15.20;93.60;;;;;;4226502;28;20024;-66
2023/04/11 07:37:48;;;;;;;10.30;7.15;;;15.10;93.70;;;;;;4226367;28;20040;-62
2023/04/11 07:39:50;;;;;;;10.50;7.65;;;14.90;94.20;;;;;;4226169;28;20039;-63
2023/04/11 07:41:55;;;;;;;13.50;7.25;;;14.60;94.60;;;;;;4227895;28;20433;-63
2023/04/11 07:43:56;;;;;;;11.02;6.63;;;14.30;95.30;;;;;;4225686;28;20035;-63
2023/04/11 07:45:58;;;;;;;9.60;7.28;;;14.50;95.90;;;;;;4230566;28;20112;-62
2023/04/11 07:47:59;;;;;;;11.03;7.50;;;14.60;95.90;;;;;;4230734;28;20027;-64
2023/04/11 07:50:00;;;;;;;14.00;7.03;;;14.40;96.20;;;;;;4231447;28;20073;-63
2023/04/11 07:52:02;;;;;;;9.67;6.30;;;14.30;96.40;;;;;;4229791;28;20024;-64
2023/04/11 07:54:03;;;;;;;11.17;6.90;;;14.20;96.90;;;;;;4218899;28;20078;-64
2023/04/11 07:56:04;;;;;;;9.27;6.87;;;13.90;98.00;;;;;;4213834;28;20032;-63
2023/04/11 07:58:06;;;;;;;8.90;6.13;;;14.10;98.20;;;;;;4218405;28;20064;-63
2023/04/11 08:00:09;;;;;;;9.13;5.87;;;14.50;97.80;;;;;;4230268;28;20463;-63
2023/04/11 08:02:10;;;;;;;7.27;5.97;;;15.00;97.40;;;;;;4229317;28;20039;-64
2023/04/11 08:04:11;;;;;;;7.07;5.90;;;15.10;97.00;;;;;;4229586;28;20048;-63
2023/04/11 08:06:12;;;;;;;7.90;5.70;;;15.40;96.90;;;;;;4230505;28;20069;-69
2023/04/11 08:08:13;;;;;;;7.50;5.60;;;15.60;96.50;;;;;;4226897;28;20480;-61
2023/04/11 08:10:14;;;;;;;11.93;6.00;;;14.90;97.30;;;;;;4229244;28;20028;-63
2023/04/11 08:12:15;;;;;;;7.07;5.13;;;14.70;97.70;;;;;;4213088;28;20036;-63
2023/04/11 08:14:17;;;;;;;6.70;4.90;;;14.60;97.90;;;;;;4212173;28;20477;-65
2023/04/11 08:16:18;;;;;;;7.00;5.33;;;15.00;98.00;;;;;;4213841;28;20035;-64
2023/04/11 08:18:20;;;;;;;7.03;4.70;;;15.40;97.60;;;;;;4223843;28;20434;-67
2023/04/11 08:20:25;;;;;;;6.57;4.60;;;15.60;97.20;;;;;;4230397;28;20080;-66
2023/04/11 08:22:26;;;;;;;7.53;5.30;;;15.60;96.70;;;;;;4211215;28;20078;-62
2023/04/11 08:24:27;;;;;;;6.40;4.50;;;15.40;96.70;;;;;;4212252;28;20048;-63
2023/04/11 08:26:29;;;;;;;7.82;4.13;;;15.40;96.80;;;;;;4228690;28;20044;-63
2023/04/11 08:28:30;;;;;;;6.35;3.85;;;15.50;95.50;;;;;;4229768;28;20047;-64
2023/04/11 08:30:31;;;;;;;7.05;3.40;;;15.00;95.10;;;;;;4228696;28;20088;-63
2023/04/11 08:32:36;;;;;;;4.53;3.67;;;14.60;95.20;;;;;;4230101;28;20036;-64
2023/04/11 08:34:37;;;;;;;4.20;3.70;;;14.30;95.30;;;;;;4228444;28;20045;-63
2023/04/11 08:36:38;;;;;;;6.47;4.33;;;14.20;95.60;;;;;;4216050;28;20081;-65
2023/04/11 08:38:40;;;;;;;6.25;3.88;;;14.10;95.80;;;;;;4219311;28;20012;-62
2023/04/11 08:40:41;;;;;;;6.87;4.17;;;14.10;96.00;;;;;;4229101;28;20069;-63
2023/04/11 08:42:43;;;;;;;5.90;3.33;;;14.10;95.50;;;;;;4230411;28;20088;-63
2023/04/11 08:44:53;;;;;;;7.13;4.73;;;14.20;95.20;;;;;;4229436;28;20035;-63
2023/04/11 08:46:55;;;;;;;9.23;6.13;;;14.10;95.00;;;;;;4230448;28;20828;-65
2023/04/11 08:48:56;;;;;;;8.50;5.23;;;14.00;95.50;;;;;;4229672;28;20028;-68
2023/04/11 08:50:57;;;;;;;7.90;5.37;;;14.00;95.50;;;;;;4229395;28;20039;-64
2023/04/11 08:53:01;;;;;;;5.50;3.70;;;14.20;95.60;;;;;;4229328;28;20027;-63
2023/04/11 08:55:03;;;;;;;4.13;3.33;;;14.30;94.80;;;;;;4213356;28;20384;-64
2023/04/11 08:57:04;;;;;;;8.57;4.03;;;14.40;94.40;;;;;;4211245;28;20414;-63
2023/04/11 08:59:05;;;;;;;6.97;4.17;;;14.30;94.40;;;;;;4213236;28;20020;-65
2023/04/11 09:01:27;;;;;;;4.53;3.30;;;14.50;94.40;;;;;;4221923;28;20433;-63
2023/04/11 09:03:50;;;;;;;4.83;3.47;;;14.50;93.50;;;;;;4227383;28;20031;-61
2023/04/11 09:05:51;;;;;;;5.73;3.53;;;14.80;94.20;;;;;;4211957;28;20024;-62
2023/04/11 09:07:53;;;;;;;4.60;3.67;;;15.30;93.80;;;;;;4217203;28;20031;-64
2023/04/11 09:09:54;;;;;;;7.50;4.37;;;15.70;93.30;;;;;;4227729;28;20405;-63
2023/04/11 09:11:56;;;;;;;4.33;3.10;;;15.90;93.10;;;;;;4210654;28;20040;-63
2023/04/11 09:14:07;;;;;;;4.28;3.40;;;15.80;92.10;;;;;;4210394;28;20048;-64
2023/04/11 09:16:13;;;;;;;7.67;3.67;;;15.30;91.90;;;;;;4229276;28;20104;-63
2023/04/11 09:18:48;;;;;;;3.90;3.38;;;15.00;92.00;;;;;;4228336;28;20031;-63
2023/04/11 09:20:59;;;;;;;7.13;3.77;;;14.70;91.60;;;;;;4214386;28;20043;-62
2023/04/11 09:23:00;;;;;;;7.40;4.10;;;14.50;92.20;;;;;;4211696;28;20505;-63
2023/04/11 09:25:02;;;;;;;5.67;3.73;;;14.50;92.70;;;;;;4228201;28;20036;-65
2023/04/11 09:27:14;;;;;;;4.97;3.57;;;14.60;92.40;;;;;;4228466;28;20024;-63
2023/04/11 09:29:36;;;;;;;4.10;3.30;;;14.50;92.00;;;;;;4229064;28;20093;-61
2023/04/11 09:31:41;;;;;;;4.17;3.03;;;14.60;91.40;;;;;;4219278;28;20035;-63
2023/04/11 09:33:57;;;;;;;6.83;3.30;;;14.70;91.60;;;;;;4229522;28;20035;-63
2023/04/11 09:35:58;;;;;;;4.97;3.50;;;14.80;91.50;;;;;;4228480;28;20036;-70
2023/04/11 09:38:02;;;;;;;7.73;3.97;;;15.00;91.20;;;;;;4229842;28;20360;-64
2023/04/11 09:40:03;;;;;;;4.73;2.80;;;15.10;91.00;;;;;;4227539;28;20600;-64
2023/04/11 09:42:24;;;;;;;5.60;2.90;;;15.00;90.50;;;;;;4221651;28;20024;-67
2023/04/11 09:44:38;;;;;;;3.83;2.90;;;15.10;89.80;;;;;;4222758;28;20484;-67
2023/04/11 09:46:58;;;;;;;6.03;3.10;;;15.40;90.00;;;;;;4214882;28;20047;-64
2023/04/11 09:49:00;;;;;;;4.05;3.00;;;15.70;88.40;;;;;;4210525;28;20039;-63
2023/04/11 09:51:05;;;;;;;5.20;2.88;;;15.90;89.60;;;;;;4217785;28;20023;-64
2023/04/11 09:53:06;;;;;;;6.10;3.25;;;16.10;89.80;;;;;;4225132;28;20032;-68
2023/04/11 09:55:10;;;;;;;3.92;3.17;;;16.20;88.50;;;;;;4226937;28;20397;-65
2023/04/11 09:57:12;;;;;;;4.95;2.55;;;16.10;88.20;;;;;;4226085;28;20031;-68
2023/04/11 09:59:14;;;;;;;5.43;2.60;;;15.90;86.00;;;;;;4227507;28;20089;-64
2023/04/11 10:01:18;;;;;;;4.38;2.55;;;15.40;86.00;;;;;;4226944;28;20039;-67
2023/04/11 10:03:22;;;;;;;2.50;2.30;;;15.00;85.00;;;;;;4227687;28;20031;-65
2023/04/11 10:05:26;;;;;;;4.30;2.42;;;14.80;86.10;;;;;;4227325;28;20068;-68
2023/04/11 10:07:28;;;;;;;2.28;2.08;;;14.90;86.40;;;;;;4227711;28;20016;-64
2023/04/11 10:09:31;;;;;;;5.55;3.10;;;15.00;86.90;;;;;;4226437;28;20024;-65
2023/04/11 10:11:32;;;;;;;4.28;2.85;;;15.20;86.40;;;;;;4227015;28;20113;-63
2023/04/11 10:13:45;;;;;;;6.97;3.05;;;15.20;86.30;;;;;;4228378;28;20031;-64
2023/04/11 10:16:13;;;;;;;4.63;2.95;;;15.50;86.20;;;;;;4226660;28;20077;-67
2023/04/11 10:18:15;;;;;;;4.53;3.38;;;15.70;86.10;;;;;;4223307;28;20055;-65
2023/04/11 10:20:34;;;;;;;4.13;3.28;;;15.80;86.00;;;;;;4227371;28;20536;-64
2023/04/11 10:22:45;;;;;;;4.07;2.92;;;15.80;85.10;;;;;;4227790;28;20084;-65
2023/04/11 10:25:06;;;;;;;;;;;15.50;85.60;;;;;;4227189;28;20040;-65
2023/04/11 10:27:07;;;;;;;3.80;2.67;;;15.30;86.00;;;;;;4226118;28;19903;-65
2023/04/11 10:29:29;;;;;;;3.78;3.00;;;15.10;87.10;;;;;;4226672;28;20031;-66
2023/04/11 10:31:30;;;;;;;3.58;2.72;;;15.40;87.20;;;;;;4226643;28;20049;-64
2023/04/11 10:33:32;;;;;;;5.75;3.33;;;15.60;86.80;;;;;;4226285;28;20085;-64
2023/04/11 10:35:33;;;;;;;4.75;2.90;;;15.80;86.90;;;;;;4225321;28;20039;-64